sensor_id;sensor_type;location;lat;lon;timestamp;P1;durP1;ratioP1;P2;durP2;ratioP2
54458;SDS011;40368;49.350;8.152;2022-12-07T00:00:23;35;;;53;;
54458;SDS011;40368;49.350;8.152;2022-12-07T00:01:37;37;;;44;;
54458;SDS011;40368;49.350;8.152;2022-12-07T00:03:28;36;;;47;;
54458;SDS011;40368;49.350;8.152;2022-12-07T00:05:19;37;;;80;;
54458;SDS011;40368;49.350;8.152;2022-12-07T00:06:34;34;;;49;;
54458;SDS011;40368;49.350;8.152;2022-12-07T00:08:24;37;;;49;;
54458;SDS011;40368;49.350;8.152;2022-12-07T00:09:38;34;;;48;;
54458;SDS011;40368;49.350;8.152;2022-12-07T00:11:30;32;;;46;;
54458;SDS011;40368;49.350;8.152;2022-12-07T00:13:21;38;;;50;;
54458;SDS011;40368;49.350;8.152;2022-12-07T00:14:35;36;;;58;;
54458;SDS011;40368;49.350;8.152;2022-12-07T00:16:27;38;;;54;;
54458;SDS011;40368;49.350;8.152;2022-12-07T00:18:17;36;;;61;;
54458;SDS011;40368;49.350;8.152;2022-12-07T00:19:32;34;;;44;;
54458;SDS011;40368;49.350;8.152;2022-12-07T00:21:23;40;;;59;;
54458;SDS011;40368;49.350;8.152;2022-12-07T00:22:37;36;;;48;;
54458;SDS011;40368;49.350;8.152;2022-12-07T00:24:28;35;;;59;;
54458;SDS011;40368;49.350;8.152;2022-12-07T00:26:20;39;;;64;;
54458;SDS011;40368;49.350;8.152;2022-12-07T00:27:33;38;;;55;;
54458;SDS011;40368;49.350;8.152;2022-12-07T00:29:24;36;;;46;;
54458;SDS011;40368;49.350;8.152;2022-12-07T00:30:39;38;;;50;;
54458;SDS011;40368;49.350;8.152;2022-12-07T00:32:30;38;;;56;;
54458;SDS011;40368;49.350;8.152;2022-12-07T00:34:21;35;;;68;;
54458;SDS011;40368;49.350;8.152;2022-12-07T00:35:35;38;;;44;;
54458;SDS011;40368;49.350;8.152;2022-12-07T00:37:26;37;;;50;;
54458;SDS011;40368;49.350;8.152;2022-12-07T00:39:17;37;;;55;;
54458;SDS011;40368;49.350;8.152;2022-12-07T00:40:32;43;;;68;;
54458;SDS011;40368;49.350;8.152;2022-12-07T00:42:23;34;;;40;;
54458;SDS011;40368;49.350;8.152;2022-12-07T00:43:37;38;;;48;;
54458;SDS011;40368;49.350;8.152;2022-12-07T00:45:28;38;;;60;;
54458;SDS011;40368;49.350;8.152;2022-12-07T00:47:19;34;;;38;;
54458;SDS011;40368;49.350;8.152;2022-12-07T00:48:34;36;;;66;;
54458;SDS011;40368;49.350;8.152;2022-12-07T00:50:16;39;;;63;;
54458;SDS011;40368;49.350;8.152;2022-12-07T00:51:31;39;;;53;;
54458;SDS011;40368;49.350;8.152;2022-12-07T00:53:22;35;;;53;;
54458;SDS011;40368;49.350;8.152;2022-12-07T00:54:36;35;;;48;;
54458;SDS011;40368;49.350;8.152;2022-12-07T00:56:28;36;;;54;;
54458;SDS011;40368;49.350;8.152;2022-12-07T00:58:18;36;;;64;;
54458;SDS011;40368;49.350;8.152;2022-12-07T00:59:32;31;;;38;;
54458;SDS011;40368;49.350;8.152;2022-12-07T01:01:24;36;;;48;;
54458;SDS011;40368;49.350;8.152;2022-12-07T01:02:38;32;;;55;;
54458;SDS011;40368;49.350;8.152;2022-12-07T01:04:29;34;;;51;;
54458;SDS011;40368;49.350;8.152;2022-12-07T01:06:21;35;;;54;;
54458;SDS011;40368;49.350;8.152;2022-12-07T01:07:34;32;;;61;;
54458;SDS011;40368;49.350;8.152;2022-12-07T01:09:25;34;;;51;;
54458;SDS011;40368;49.350;8.152;2022-12-07T01:10:39;32;;;46;;
54458;SDS011;40368;49.350;8.152;2022-12-07T01:12:31;33;;;62;;
54458;SDS011;40368;49.350;8.152;2022-12-07T01:14:22;37;;;54;;
54458;SDS011;40368;49.350;8.152;2022-12-07T01:15:38;35;;;60;;
54458;SDS011;40368;49.350;8.152;2022-12-07T01:17:28;32;;;45;;
54458;SDS011;40368;49.350;8.152;2022-12-07T01:19:18;35;;;50;;
54458;SDS011;40368;49.350;8.152;2022-12-07T01:20:32;38;;;72;;
54458;SDS011;40368;49.350;8.152;2022-12-07T01:22:24;37;;;56;;
54458;SDS011;40368;49.350;8.152;2022-12-07T01:23:38;32;;;56;;
54458;SDS011;40368;49.350;8.152;2022-12-07T01:25:29;35;;;61;;
54458;SDS011;40368;49.350;8.152;2022-12-07T01:27:20;37;;;61;;
54458;SDS011;40368;49.350;8.152;2022-12-07T01:28:34;33;;;46;;
54458;SDS011;40368;49.350;8.152;2022-12-07T01:30:25;35;;;45;;
54458;SDS011;40368;49.350;8.152;2022-12-07T01:31:40;37;;;55;;
54458;SDS011;40368;49.350;8.152;2022-12-07T01:33:31;37;;;51;;
54458;SDS011;40368;49.350;8.152;2022-12-07T01:35:22;38;;;56;;
54458;SDS011;40368;49.350;8.152;2022-12-07T01:36:36;36;;;54;;
54458;SDS011;40368;49.350;8.152;2022-12-07T01:38:28;39;;;62;;
54458;SDS011;40368;49.350;8.152;2022-12-07T01:40:18;36;;;45;;
54458;SDS011;40368;49.350;8.152;2022-12-07T01:41:34;39;;;52;;
54458;SDS011;40368;49.350;8.152;2022-12-07T01:43:24;37;;;52;;
54458;SDS011;40368;49.350;8.152;2022-12-07T01:45:14;36;;;62;;
54458;SDS011;40368;49.350;8.152;2022-12-07T01:46:29;34;;;54;;
54458;SDS011;40368;49.350;8.152;2022-12-07T01:48:21;34;;;51;;
54458;SDS011;40368;49.350;8.152;2022-12-07T01:49:35;40;;;73;;
54458;SDS011;40368;49.350;8.152;2022-12-07T01:51:17;35;;;48;;
54458;SDS011;40368;49.350;8.152;2022-12-07T01:53:09;33;;;43;;
54458;SDS011;40368;49.350;8.152;2022-12-07T01:54:23;35;;;42;;
54458;SDS011;40368;49.350;8.152;2022-12-07T01:55:38;38;;;65;;
54458;SDS011;40368;49.350;8.152;2022-12-07T01:57:28;39;;;50;;
54458;SDS011;40368;49.350;8.152;2022-12-07T01:59:20;35;;;57;;
54458;SDS011;40368;49.350;8.152;2022-12-07T02:00:33;36;;;53;;
54458;SDS011;40368;49.350;8.152;2022-12-07T02:02:25;38;;;64;;
54458;SDS011;40368;49.350;8.152;2022-12-07T02:03:39;39;;;53;;
54458;SDS011;40368;49.350;8.152;2022-12-07T02:07:21;37;;;58;;
54458;SDS011;40368;49.350;8.152;2022-12-07T02:08:35;38;;;59;;
54458;SDS011;40368;49.350;8.152;2022-12-07T02:10:27;34;;;55;;
54458;SDS011;40368;49.350;8.152;2022-12-07T02:12:17;36;;;47;;
54458;SDS011;40368;49.350;8.152;2022-12-07T02:13:32;38;;;56;;
54458;SDS011;40368;49.350;8.152;2022-12-07T02:16:38;34;;;43;;
54458;SDS011;40368;49.350;8.152;2022-12-07T02:17:52;38;;;51;;
54458;SDS011;40368;49.350;8.152;2022-12-07T02:19:14;37;;;52;;
54458;SDS011;40368;49.350;8.152;2022-12-07T02:20:21;36;;;51;;
54458;SDS011;40368;49.350;8.152;2022-12-07T02:22:52;35;;;50;;
54458;SDS011;40368;49.350;8.152;2022-12-07T02:24:08;37;;;48;;
54458;SDS011;40368;49.350;8.152;2022-12-07T02:25:19;37;;;62;;
54458;SDS011;40368;49.350;8.152;2022-12-07T02:27:45;35;;;48;;
54458;SDS011;40368;49.350;8.152;2022-12-07T02:29:07;34;;;44;;
54458;SDS011;40368;49.350;8.152;2022-12-07T02:31:26;37;;;45;;
54458;SDS011;40368;49.350;8.152;2022-12-07T02:33:18;37;;;42;;
54458;SDS011;40368;49.350;8.152;2022-12-07T02:34:34;33;;;39;;
54458;SDS011;40368;49.350;8.152;2022-12-07T02:36:25;45;;;74;;
54458;SDS011;40368;49.350;8.152;2022-12-07T02:37:38;36;;;49;;
54458;SDS011;40368;49.350;8.152;2022-12-07T02:39:29;37;;;49;;
54458;SDS011;40368;49.350;8.152;2022-12-07T02:41:20;30;;;46;;
54458;SDS011;40368;49.350;8.152;2022-12-07T02:42:35;35;;;46;;
54458;SDS011;40368;49.350;8.152;2022-12-07T02:44:25;31;;;45;;
54458;SDS011;40368;49.350;8.152;2022-12-07T02:45:39;36;;;45;;
54458;SDS011;40368;49.350;8.152;2022-12-07T02:47:30;35;;;42;;
54458;SDS011;40368;49.350;8.152;2022-12-07T02:49:21;36;;;62;;
54458;SDS011;40368;49.350;8.152;2022-12-07T02:52:18;31;;;34;;
54458;SDS011;40368;49.350;8.152;2022-12-07T02:53:34;38;;;59;;
54458;SDS011;40368;49.350;8.152;2022-12-07T02:55:26;35;;;56;;
54458;SDS011;40368;49.350;8.152;2022-12-07T02:56:39;34;;;43;;
54458;SDS011;40368;49.350;8.152;2022-12-07T02:58:32;36;;;57;;
54458;SDS011;40368;49.350;8.152;2022-12-07T03:00:20;33;;;43;;
54458;SDS011;40368;49.350;8.152;2022-12-07T03:01:36;35;;;61;;
54458;SDS011;40368;49.350;8.152;2022-12-07T03:03:25;34;;;60;;
54458;SDS011;40368;49.350;8.152;2022-12-07T03:05:21;33;;;49;;
54458;SDS011;40368;49.350;8.152;2022-12-07T03:06:31;34;;;74;;
54458;SDS011;40368;49.350;8.152;2022-12-07T03:08:23;34;;;40;;
54458;SDS011;40368;49.350;8.152;2022-12-07T03:09:37;36;;;55;;
54458;SDS011;40368;49.350;8.152;2022-12-07T03:11:29;36;;;42;;
54458;SDS011;40368;49.350;8.152;2022-12-07T03:13:19;33;;;49;;
54458;SDS011;40368;49.350;8.152;2022-12-07T03:14:34;32;;;43;;
54458;SDS011;40368;49.350;8.152;2022-12-07T03:16:25;31;;;39;;
54458;SDS011;40368;49.350;8.152;2022-12-07T03:17:38;36;;;61;;
54458;SDS011;40368;49.350;8.152;2022-12-07T03:21:21;38;;;71;;
54458;SDS011;40368;49.350;8.152;2022-12-07T03:22:34;34;;;64;;
54458;SDS011;40368;49.350;8.152;2022-12-07T03:24:26;32;;;45;;
54458;SDS011;40368;49.350;8.152;2022-12-07T03:26:17;41;;;60;;
54458;SDS011;40368;49.350;8.152;2022-12-07T03:27:31;34;;;46;;
54458;SDS011;40368;49.350;8.152;2022-12-07T03:29:22;43;;;62;;
54458;SDS011;40368;49.350;8.152;2022-12-07T03:30:37;43;;;108;;
54458;SDS011;40368;49.350;8.152;2022-12-07T03:32:28;33;;;40;;
54458;SDS011;40368;49.350;8.152;2022-12-07T03:34:19;35;;;58;;
54458;SDS011;40368;49.350;8.152;2022-12-07T03:35:33;36;;;58;;
54458;SDS011;40368;49.350;8.152;2022-12-07T03:37:26;37;;;81;;
54458;SDS011;40368;49.350;8.152;2022-12-07T03:38:40;35;;;47;;
54458;SDS011;40368;49.350;8.152;2022-12-07T03:40:30;28;;;36;;
54458;SDS011;40368;49.350;8.152;2022-12-07T03:42:20;42;;;69;;
54458;SDS011;40368;49.350;8.152;2022-12-07T03:43:34;31;;;42;;
54458;SDS011;40368;49.350;8.152;2022-12-07T03:45:29;32;;;57;;
54458;SDS011;40368;49.350;8.152;2022-12-07T03:47:19;35;;;41;;
54458;SDS011;40368;49.350;8.152;2022-12-07T03:48:32;36;;;51;;
54458;SDS011;40368;49.350;8.152;2022-12-07T03:50:25;35;;;44;;
54458;SDS011;40368;49.350;8.152;2022-12-07T03:51:29;33;;;38;;
54458;SDS011;40368;49.350;8.152;2022-12-07T03:53:20;30;;;55;;
54458;SDS011;40368;49.350;8.152;2022-12-07T03:54:34;32;;;50;;
54458;SDS011;40368;49.350;8.152;2022-12-07T03:56:24;32;;;47;;
54458;SDS011;40368;49.350;8.152;2022-12-07T03:57:39;29;;;40;;
54458;SDS011;40368;49.350;8.152;2022-12-07T03:59:30;32;;;42;;
54458;SDS011;40368;49.350;8.152;2022-12-07T04:01:22;29;;;45;;
54458;SDS011;40368;49.350;8.152;2022-12-07T04:02:35;37;;;59;;
54458;SDS011;40368;49.350;8.152;2022-12-07T04:04:26;31;;;58;;
54458;SDS011;40368;49.350;8.152;2022-12-07T04:06:18;29;;;49;;
54458;SDS011;40368;49.350;8.152;2022-12-07T04:07:32;33;;;49;;
54458;SDS011;40368;49.350;8.152;2022-12-07T04:09:23;29;;;76;;
54458;SDS011;40368;49.350;8.152;2022-12-07T04:10:37;32;;;62;;
54458;SDS011;40368;49.350;8.152;2022-12-07T04:12:28;28;;;34;;
54458;SDS011;40368;49.350;8.152;2022-12-07T04:14:19;31;;;46;;
54458;SDS011;40368;49.350;8.152;2022-12-07T04:15:33;30;;;46;;
54458;SDS011;40368;49.350;8.152;2022-12-07T04:17:25;29;;;34;;
54458;SDS011;40368;49.350;8.152;2022-12-07T04:18:39;31;;;47;;
54458;SDS011;40368;49.350;8.152;2022-12-07T04:20:30;30;;;45;;
54458;SDS011;40368;49.350;8.152;2022-12-07T04:22:21;32;;;48;;
54458;SDS011;40368;49.350;8.152;2022-12-07T04:23:35;30;;;49;;
54458;SDS011;40368;49.350;8.152;2022-12-07T04:25:26;28;;;50;;
54458;SDS011;40368;49.350;8.152;2022-12-07T04:27:18;31;;;59;;
54458;SDS011;40368;49.350;8.152;2022-12-07T04:28:32;29;;;34;;
54458;SDS011;40368;49.350;8.152;2022-12-07T04:30:23;27;;;75;;
54458;SDS011;40368;49.350;8.152;2022-12-07T04:31:37;31;;;53;;
54458;SDS011;40368;49.350;8.152;2022-12-07T04:33:28;34;;;46;;
54458;SDS011;40368;49.350;8.152;2022-12-07T04:35:20;34;;;67;;
54458;SDS011;40368;49.350;8.152;2022-12-07T04:36:34;33;;;49;;
54458;SDS011;40368;49.350;8.152;2022-12-07T04:38:25;30;;;46;;
54458;SDS011;40368;49.350;8.152;2022-12-07T04:39:39;30;;;56;;
54458;SDS011;40368;49.350;8.152;2022-12-07T04:41:30;33;;;58;;
54458;SDS011;40368;49.350;8.152;2022-12-07T04:43:21;32;;;42;;
54458;SDS011;40368;49.350;8.152;2022-12-07T04:44:35;34;;;51;;
54458;SDS011;40368;49.350;8.152;2022-12-07T04:46:27;33;;;56;;
54458;SDS011;40368;49.350;8.152;2022-12-07T04:48:18;32;;;45;;
54458;SDS011;40368;49.350;8.152;2022-12-07T04:49:32;31;;;41;;
54458;SDS011;40368;49.350;8.152;2022-12-07T04:51:24;34;;;65;;
54458;SDS011;40368;49.350;8.152;2022-12-07T04:52:29;33;;;46;;
54458;SDS011;40368;49.350;8.152;2022-12-07T04:54:20;32;;;40;;
54458;SDS011;40368;49.350;8.152;2022-12-07T04:55:34;38;;;55;;
54458;SDS011;40368;49.350;8.152;2022-12-07T04:57:25;37;;;73;;
54458;SDS011;40368;49.350;8.152;2022-12-07T04:59:17;36;;;64;;
54458;SDS011;40368;49.350;8.152;2022-12-07T05:00:31;32;;;58;;
54458;SDS011;40368;49.350;8.152;2022-12-07T05:02:22;36;;;46;;
54458;SDS011;40368;49.350;8.152;2022-12-07T05:03:36;40;;;69;;
54458;SDS011;40368;49.350;8.152;2022-12-07T05:05:27;34;;;53;;
54458;SDS011;40368;49.350;8.152;2022-12-07T05:07:18;38;;;59;;
54458;SDS011;40368;49.350;8.152;2022-12-07T05:08:33;39;;;78;;
54458;SDS011;40368;49.350;8.152;2022-12-07T05:10:24;39;;;54;;
54458;SDS011;40368;49.350;8.152;2022-12-07T05:11:38;44;;;68;;
54458;SDS011;40368;49.350;8.152;2022-12-07T05:13:30;33;;;70;;
54458;SDS011;40368;49.350;8.152;2022-12-07T05:15:20;39;;;57;;
54458;SDS011;40368;49.350;8.152;2022-12-07T05:16:34;46;;;71;;
54458;SDS011;40368;49.350;8.152;2022-12-07T05:18:26;44;;;67;;
54458;SDS011;40368;49.350;8.152;2022-12-07T05:20:17;38;;;52;;
54458;SDS011;40368;49.350;8.152;2022-12-07T05:21:31;43;;;100;;
54458;SDS011;40368;49.350;8.152;2022-12-07T05:23:22;39;;;47;;
54458;SDS011;40368;49.350;8.152;2022-12-07T05:24:36;45;;;63;;
54458;SDS011;40368;49.350;8.152;2022-12-07T05:26:27;44;;;68;;
54458;SDS011;40368;49.350;8.152;2022-12-07T05:28:19;41;;;63;;
54458;SDS011;40368;49.350;8.152;2022-12-07T05:29:33;38;;;60;;
54458;SDS011;40368;49.350;8.152;2022-12-07T05:31:24;40;;;72;;
54458;SDS011;40368;49.350;8.152;2022-12-07T05:32:38;41;;;63;;
54458;SDS011;40368;49.350;8.152;2022-12-07T05:34:29;39;;;77;;
54458;SDS011;40368;49.350;8.152;2022-12-07T05:36:20;42;;;66;;
54458;SDS011;40368;49.350;8.152;2022-12-07T05:37:34;37;;;45;;
54458;SDS011;40368;49.350;8.152;2022-12-07T05:39:26;44;;;90;;
54458;SDS011;40368;49.350;8.152;2022-12-07T05:41:17;40;;;52;;
54458;SDS011;40368;49.350;8.152;2022-12-07T05:42:31;48;;;79;;
54458;SDS011;40368;49.350;8.152;2022-12-07T05:44:22;42;;;73;;
54458;SDS011;40368;49.350;8.152;2022-12-07T05:45:36;41;;;52;;
54458;SDS011;40368;49.350;8.152;2022-12-07T05:47:27;36;;;47;;
54458;SDS011;40368;49.350;8.152;2022-12-07T05:49:19;38;;;54;;
54458;SDS011;40368;49.350;8.152;2022-12-07T05:50:33;37;;;50;;
54458;SDS011;40368;49.350;8.152;2022-12-07T05:52:24;41;;;65;;
54458;SDS011;40368;49.350;8.152;2022-12-07T05:53:30;38;;;53;;
54458;SDS011;40368;49.350;8.152;2022-12-07T05:55:21;38;;;52;;
54458;SDS011;40368;49.350;8.152;2022-12-07T05:56:35;40;;;53;;
54458;SDS011;40368;49.350;8.152;2022-12-07T05:58:26;37;;;48;;
54458;SDS011;40368;49.350;8.152;2022-12-07T06:00:18;43;;;55;;
54458;SDS011;40368;49.350;8.152;2022-12-07T06:01:32;48;;;68;;
54458;SDS011;40368;49.350;8.152;2022-12-07T06:03:23;42;;;65;;
54458;SDS011;40368;49.350;8.152;2022-12-07T06:04:38;45;;;64;;
54458;SDS011;40368;49.350;8.152;2022-12-07T06:06:28;43;;;74;;
54458;SDS011;40368;49.350;8.152;2022-12-07T06:08:19;37;;;67;;
54458;SDS011;40368;49.350;8.152;2022-12-07T06:09:34;42;;;82;;
54458;SDS011;40368;49.350;8.152;2022-12-07T06:11:25;41;;;62;;
54458;SDS011;40368;49.350;8.152;2022-12-07T06:12:39;41;;;61;;
54458;SDS011;40368;49.350;8.152;2022-12-07T06:14:30;40;;;62;;
54458;SDS011;40368;49.350;8.152;2022-12-07T06:16:21;42;;;64;;
54458;SDS011;40368;49.350;8.152;2022-12-07T06:17:35;43;;;72;;
54458;SDS011;40368;49.350;8.152;2022-12-07T06:19:26;45;;;64;;
54458;SDS011;40368;49.350;8.152;2022-12-07T06:21:18;44;;;69;;
54458;SDS011;40368;49.350;8.152;2022-12-07T06:22:32;50;;;115;;
54458;SDS011;40368;49.350;8.152;2022-12-07T06:24:23;43;;;75;;
54458;SDS011;40368;49.350;8.152;2022-12-07T06:25:37;39;;;65;;
54458;SDS011;40368;49.350;8.152;2022-12-07T06:27:28;47;;;81;;
54458;SDS011;40368;49.350;8.152;2022-12-07T06:29:19;50;;;80;;
54458;SDS011;40368;49.350;8.152;2022-12-07T06:30:34;49;;;73;;
54458;SDS011;40368;49.350;8.152;2022-12-07T06:32:25;46;;;60;;
54458;SDS011;40368;49.350;8.152;2022-12-07T06:33:39;44;;;71;;
54458;SDS011;40368;49.350;8.152;2022-12-07T06:35:32;47;;;71;;
54458;SDS011;40368;49.350;8.152;2022-12-07T06:37:21;47;;;75;;
54458;SDS011;40368;49.350;8.152;2022-12-07T06:38:35;43;;;62;;
54458;SDS011;40368;49.350;8.152;2022-12-07T06:40:27;47;;;68;;
54458;SDS011;40368;49.350;8.152;2022-12-07T06:42:18;42;;;80;;
54458;SDS011;40368;49.350;8.152;2022-12-07T06:43:32;46;;;66;;
54458;SDS011;40368;49.350;8.152;2022-12-07T06:45:23;47;;;67;;
54458;SDS011;40368;49.350;8.152;2022-12-07T06:46:37;47;;;87;;
54458;SDS011;40368;49.350;8.152;2022-12-07T06:48:28;54;;;115;;
54458;SDS011;40368;49.350;8.152;2022-12-07T06:50:20;53;;;90;;
54458;SDS011;40368;49.350;8.152;2022-12-07T06:51:34;51;;;102;;
54458;SDS011;40368;49.350;8.152;2022-12-07T06:52:48;48;;;82;;
54458;SDS011;40368;49.350;8.152;2022-12-07T06:54:31;50;;;86;;
54458;SDS011;40368;49.350;8.152;2022-12-07T06:56:22;57;;;86;;
54458;SDS011;40368;49.350;8.152;2022-12-07T06:57:36;47;;;68;;
54458;SDS011;40368;49.350;8.152;2022-12-07T06:59:27;48;;;61;;
54458;SDS011;40368;49.350;8.152;2022-12-07T07:01:18;53;;;96;;
54458;SDS011;40368;49.350;8.152;2022-12-07T07:02:33;49;;;68;;
54458;SDS011;40368;49.350;8.152;2022-12-07T07:04:24;47;;;69;;
54458;SDS011;40368;49.350;8.152;2022-12-07T07:05:38;39;;;64;;
54458;SDS011;40368;49.350;8.152;2022-12-07T07:07:29;54;;;92;;
54458;SDS011;40368;49.350;8.152;2022-12-07T07:09:20;52;;;79;;
54458;SDS011;40368;49.350;8.152;2022-12-07T07:10:34;51;;;79;;
54458;SDS011;40368;49.350;8.152;2022-12-07T07:12:26;52;;;80;;
54458;SDS011;40368;49.350;8.152;2022-12-07T07:14:17;45;;;64;;
54458;SDS011;40368;49.350;8.152;2022-12-07T07:15:31;54;;;106;;
54458;SDS011;40368;49.350;8.152;2022-12-07T07:17:22;48;;;69;;
54458;SDS011;40368;49.350;8.152;2022-12-07T07:18:36;58;;;84;;
54458;SDS011;40368;49.350;8.152;2022-12-07T07:20:27;51;;;92;;
54458;SDS011;40368;49.350;8.152;2022-12-07T07:22:19;58;;;104;;
54458;SDS011;40368;49.350;8.152;2022-12-07T07:23:33;54;;;82;;
54458;SDS011;40368;49.350;8.152;2022-12-07T07:25:24;54;;;86;;
54458;SDS011;40368;49.350;8.152;2022-12-07T07:26:38;54;;;89;;
54458;SDS011;40368;49.350;8.152;2022-12-07T07:28:29;52;;;90;;
54458;SDS011;40368;49.350;8.152;2022-12-07T07:30:21;55;;;93;;
54458;SDS011;40368;49.350;8.152;2022-12-07T07:31:35;62;;;93;;
54458;SDS011;40368;49.350;8.152;2022-12-07T07:33:26;52;;;77;;
54458;SDS011;40368;49.350;8.152;2022-12-07T07:35:17;52;;;109;;
54458;SDS011;40368;49.350;8.152;2022-12-07T07:36:32;54;;;103;;
54458;SDS011;40368;49.350;8.152;2022-12-07T07:37:08;54;;;99;;
54458;SDS011;40368;49.350;8.152;2022-12-07T07:38:22;57;;;84;;
54458;SDS011;40368;49.350;8.152;2022-12-07T07:39:36;58;;;94;;
54458;SDS011;40368;49.350;8.152;2022-12-07T07:41:28;55;;;83;;
54458;SDS011;40368;49.350;8.152;2022-12-07T07:43:19;60;;;80;;
54458;SDS011;40368;49.350;8.152;2022-12-07T07:44:33;55;;;111;;
54458;SDS011;40368;49.350;8.152;2022-12-07T07:46:24;61;;;91;;
54458;SDS011;40368;49.350;8.152;2022-12-07T07:47:38;64;;;102;;
54458;SDS011;40368;49.350;8.152;2022-12-07T07:49:29;67;;;100;;
54458;SDS011;40368;49.350;8.152;2022-12-07T07:51:20;68;;;109;;
54458;SDS011;40368;49.350;8.152;2022-12-07T07:52:35;62;;;99;;
54458;SDS011;40368;49.350;8.152;2022-12-07T07:56:09;72;;;112;;
54458;SDS011;40368;49.350;8.152;2022-12-07T07:57:23;76;;;145;;
54458;SDS011;40368;49.350;8.152;2022-12-07T07:58:37;69;;;98;;
54458;SDS011;40368;49.350;8.152;2022-12-07T07:59:14;67;;;113;;
54458;SDS011;40368;49.350;8.152;2022-12-07T08:00:28;62;;;104;;
54458;SDS011;40368;49.350;8.152;2022-12-07T08:02:20;64;;;107;;
54458;SDS011;40368;49.350;8.152;2022-12-07T08:03:34;66;;;105;;
54458;SDS011;40368;49.350;8.152;2022-12-07T08:05:25;61;;;115;;
54458;SDS011;40368;49.350;8.152;2022-12-07T08:06:39;64;;;102;;
54458;SDS011;40368;49.350;8.152;2022-12-07T08:08:30;67;;;103;;
54458;SDS011;40368;49.350;8.152;2022-12-07T08:10:21;65;;;109;;
54458;SDS011;40368;49.350;8.152;2022-12-07T08:11:35;73;;;124;;
54458;SDS011;40368;49.350;8.152;2022-12-07T08:13:27;63;;;119;;
54458;SDS011;40368;49.350;8.152;2022-12-07T08:15:18;68;;;111;;
54458;SDS011;40368;49.350;8.152;2022-12-07T08:16:32;62;;;113;;
54458;SDS011;40368;49.350;8.152;2022-12-07T08:18:23;70;;;152;;
54458;SDS011;40368;49.350;8.152;2022-12-07T08:19:37;68;;;102;;
54458;SDS011;40368;49.350;8.152;2022-12-07T08:21:28;68;;;140;;
54458;SDS011;40368;49.350;8.152;2022-12-07T08:23:20;70;;;140;;
54458;SDS011;40368;49.350;8.152;2022-12-07T08:24:34;65;;;101;;
54458;SDS011;40368;49.350;8.152;2022-12-07T08:26:25;71;;;116;;
54458;SDS011;40368;49.350;8.152;2022-12-07T08:27:39;66;;;99;;
54458;SDS011;40368;49.350;8.152;2022-12-07T08:29:30;68;;;105;;
54458;SDS011;40368;49.350;8.152;2022-12-07T08:31:21;72;;;94;;
54458;SDS011;40368;49.350;8.152;2022-12-07T08:32:35;72;;;115;;
54458;SDS011;40368;49.350;8.152;2022-12-07T08:34:27;64;;;100;;
54458;SDS011;40368;49.350;8.152;2022-12-07T08:36:18;68;;;127;;
54458;SDS011;40368;49.350;8.152;2022-12-07T08:37:32;66;;;89;;
54458;SDS011;40368;49.350;8.152;2022-12-07T08:39:23;60;;;114;;
54458;SDS011;40368;49.350;8.152;2022-12-07T08:40:37;64;;;116;;
54458;SDS011;40368;49.350;8.152;2022-12-07T08:42:28;56;;;95;;
54458;SDS011;40368;49.350;8.152;2022-12-07T08:44:20;64;;;109;;
54458;SDS011;40368;49.350;8.152;2022-12-07T08:45:34;62;;;131;;
54458;SDS011;40368;49.350;8.152;2022-12-07T08:47:25;60;;;116;;
54458;SDS011;40368;49.350;8.152;2022-12-07T08:48:41;59;;;105;;
54458;SDS011;40368;49.350;8.152;2022-12-07T08:50:30;57;;;90;;
54458;SDS011;40368;49.350;8.152;2022-12-07T08:52:21;64;;;98;;
54458;SDS011;40368;49.350;8.152;2022-12-07T08:53:28;60;;;94;;
54458;SDS011;40368;49.350;8.152;2022-12-07T08:55:19;58;;;94;;
54458;SDS011;40368;49.350;8.152;2022-12-07T08:56:33;55;;;123;;
54458;SDS011;40368;49.350;8.152;2022-12-07T08:58:24;54;;;112;;
54458;SDS011;40368;49.350;8.152;2022-12-07T08:59:38;57;;;104;;
54458;SDS011;40368;49.350;8.152;2022-12-07T09:01:29;54;;;94;;
54458;SDS011;40368;49.350;8.152;2022-12-07T09:03:20;55;;;82;;
54458;SDS011;40368;49.350;8.152;2022-12-07T09:04:34;51;;;95;;
54458;SDS011;40368;49.350;8.152;2022-12-07T09:06:26;54;;;98;;
54458;SDS011;40368;49.350;8.152;2022-12-07T09:08:17;54;;;80;;
54458;SDS011;40368;49.350;8.152;2022-12-07T09:09:31;52;;;84;;
54458;SDS011;40368;49.350;8.152;2022-12-07T09:11:22;46;;;65;;
54458;SDS011;40368;49.350;8.152;2022-12-07T09:12:36;46;;;83;;
54458;SDS011;40368;49.350;8.152;2022-12-07T09:14:27;51;;;80;;
54458;SDS011;40368;49.350;8.152;2022-12-07T09:16:19;47;;;70;;
54458;SDS011;40368;49.350;8.152;2022-12-07T09:17:33;45;;;74;;
54458;SDS011;40368;49.350;8.152;2022-12-07T09:19:24;51;;;90;;
54458;SDS011;40368;49.350;8.152;2022-12-07T09:20:38;51;;;88;;
54458;SDS011;40368;49.350;8.152;2022-12-07T09:22:29;38;;;60;;
54458;SDS011;40368;49.350;8.152;2022-12-07T09:24:20;38;;;54;;
54458;SDS011;40368;49.350;8.152;2022-12-07T09:25:35;41;;;57;;
54458;SDS011;40368;49.350;8.152;2022-12-07T09:27:26;41;;;75;;
54458;SDS011;40368;49.350;8.152;2022-12-07T09:29:17;52;;;93;;
54458;SDS011;40368;49.350;8.152;2022-12-07T09:30:31;56;;;98;;
54458;SDS011;40368;49.350;8.152;2022-12-07T09:31:08;55;;;115;;
54458;SDS011;40368;49.350;8.152;2022-12-07T09:32:22;60;;;91;;
54458;SDS011;40368;49.350;8.152;2022-12-07T09:33:36;50;;;119;;
54458;SDS011;40368;49.350;8.152;2022-12-07T09:35:28;54;;;105;;
54458;SDS011;40368;49.350;8.152;2022-12-07T09:37:19;54;;;93;;
54458;SDS011;40368;49.350;8.152;2022-12-07T09:38:33;57;;;84;;
54458;SDS011;40368;49.350;8.152;2022-12-07T09:40:24;54;;;81;;
54458;SDS011;40368;49.350;8.152;2022-12-07T09:41:38;55;;;87;;
54458;SDS011;40368;49.350;8.152;2022-12-07T09:43:29;60;;;92;;
54458;SDS011;40368;49.350;8.152;2022-12-07T09:45:22;49;;;93;;
54458;SDS011;40368;49.350;8.152;2022-12-07T09:46:35;59;;;107;;
54458;SDS011;40368;49.350;8.152;2022-12-07T09:48:29;53;;;102;;
54458;SDS011;40368;49.350;8.152;2022-12-07T09:50:18;54;;;100;;
54458;SDS011;40368;49.350;8.152;2022-12-07T09:51:31;47;;;80;;
54458;SDS011;40368;49.350;8.152;2022-12-07T09:53:23;48;;;117;;
54458;SDS011;40368;49.350;8.152;2022-12-07T09:53:59;47;;;92;;
54458;SDS011;40368;49.350;8.152;2022-12-07T09:54:37;49;;;100;;
54458;SDS011;40368;49.350;8.152;2022-12-07T09:56:20;48;;;88;;
54458;SDS011;40368;49.350;8.152;2022-12-07T09:58:12;43;;;63;;
54458;SDS011;40368;49.350;8.152;2022-12-07T09:59:25;46;;;63;;
54458;SDS011;40368;49.350;8.152;2022-12-07T10:01:17;42;;;58;;
54458;SDS011;40368;49.350;8.152;2022-12-07T10:02:34;38;;;68;;
54458;SDS011;40368;49.350;8.152;2022-12-07T10:04:22;44;;;68;;
54458;SDS011;40368;49.350;8.152;2022-12-07T10:05:36;44;;;77;;
54458;SDS011;40368;49.350;8.152;2022-12-07T10:07:27;48;;;85;;
54458;SDS011;40368;49.350;8.152;2022-12-07T10:09:18;45;;;77;;
54458;SDS011;40368;49.350;8.152;2022-12-07T10:10:33;54;;;82;;
54458;SDS011;40368;49.350;8.152;2022-12-07T10:12:23;45;;;69;;
54458;SDS011;40368;49.350;8.152;2022-12-07T10:13:38;43;;;55;;
54458;SDS011;40368;49.350;8.152;2022-12-07T10:15:45;48;;;84;;
54458;SDS011;40368;49.350;8.152;2022-12-07T10:17:36;42;;;63;;